CST,Max TemperatureF,Mean TemperatureF,Min TemperatureF,Max Dew PointF,MeanDew PointF,Min DewpointF,Max Humidity, Mean Humidity, Min Humidity, Max Sea Level PressureIn, Mean Sea Level PressureIn, Min Sea Level PressureIn, Max VisibilityMiles, Mean VisibilityMiles, Min VisibilityMiles, Max Wind SpeedMPH, Mean Wind SpeedMPH, Max Gust SpeedMPH,PrecipitationIn, CloudCover, Events, WindDirDegrees
2013-11-1,66,56,44,54,47,42,94,76,44,29.85,29.74,29.63,10,10,10,17,10,21,0.13,1,,242
2013-11-2,57,46,37,47,42,37,97,84,62,30.19,29.99,29.84,10,10,4,21,6,25,0.03,3,Rain-Thunderstorm,275
2013-11-3,58,45,32,42,36,32,100,77,37,30.34,30.26,30.18,10,8,0,9,3,,0.03,0,Fog,122
2013-11-4,61,50,39,49,43,36,92,74,50,30.30,30.27,30.23,10,10,4,13,6,,0.01,2,Rain,145
2013-11-5,68,58,48,49,47,44,94,68,44,30.35,30.24,30.12,10,10,7,14,5,17,0.01,4,Rain,144
2013-11-6,61,52,41,56,49,40,94,83,56,30.22,30.09,30.01,10,9,2,18,13,25,0.03,6,Rain,225
2013-11-7,54,44,34,39,33,26,95,74,35,30.38,30.32,30.22,10,10,10,10,7,16,0.04,0,,273
2013-11-8,57,44,30,40,32,28,99,72,34,30.41,30.31,30.19,10,9,2,12,3,16,0.03,0,,149
2013-11-9,66,52,37,45,39,32,87,64,38,30.21,30.16,30.10,10,10,10,24,10,32,0.01,0,,204
2013-11-10,58,46,34,44,35,29,97,70,33,30.40,30.33,30.21,10,10,3,9,3,,0.01,0,,311
2013-11-11,64,48,32,43,36,32,97,65,30,30.37,30.24,30.13,10,10,5,23,5,30,0.00,4,Rain,228
2013-11-12,40,32,25,36,25,21,92,72,50,30.71,30.62,30.38,10,10,3,20,14,26,0.00,3,Rain,335
2013-11-13,44,32,21,27,22,15,96,70,32,30.71,30.58,30.39,10,10,5,9,4,,0.00,0,,193
2013-11-14,58,41,24,29,24,17,88,55,20,30.39,30.25,30.13,10,10,10,17,8,21,0.00,0,,175
2013-11-15,54,44,35,46,36,26,91,69,48,30.15,30.09,30.04,10,10,10,12,6,,0.00,5,,156
2013-11-16,66,57,48,62,54,46,94,85,74,30.03,29.92,29.76,10,9,4,23,12,32,0.01,6,Rain-Thunderstorm,156
2013-11-17,73,62,50,67,55,32,94,75,31,29.94,29.70,29.51,10,9,1,33,19,43,0.97,4,Rain-Thunderstorm,204
2013-11-18,57,46,35,42,36,29,89,65,35,30.30,30.14,29.94,10,10,10,20,9,28,0.17,0,,286
2013-11-19,46,40,33,36,31,29,88,74,51,30.36,30.30,30.25,10,10,7,9,5,,0.05,0,,26
2013-11-20,54,42,31,41,35,29,94,75,50,30.27,30.19,30.12,10,10,7,13,5,,0.06,1,,107
2013-11-21,57,52,46,52,46,38,96,82,66,30.24,30.19,30.16,10,7,1,14,6,,0.10,7,Rain,155
2013-11-22,53,46,40,52,44,35,97,89,81,30.45,30.33,30.18,10,6,0,18,8,24,0.12,8,Fog-Rain,329
2013-11-23,40,32,24,35,25,13,92,71,52,30.68,30.55,30.45,10,10,10,22,12,28,0.02,3,,334
2013-11-24,32,26,19,20,15,12,78,64,45,30.76,30.64,30.50,10,10,10,13,7,16,0.04,0,,10
2013-11-25,38,34,29,31,23,18,86,67,46,30.48,30.32,30.19,10,10,10,12,6,,0.01,5,Snow,158
2013-11-26,41,34,28,32,28,15,90,72,54,30.20,30.09,30.00,10,10,10,25,6,30,0.00,7,,335
2013-11-27,30,24,19,19,13,9,87,61,40,30.37,30.27,30.14,10,10,10,20,13,25,0.00,0,,306
2013-11-28,44,32,19,26,20,15,92,68,37,30.48,30.38,30.30,10,10,10,21,6,26,0.00,0,,190
2013-11-29,47,35,23,29,26,21,94,74,44,30.61,30.53,30.44,10,10,7,8,3,,0.00,0,,92
2013-11-30,56,42,28,33,29,24,91,67,29,30.44,30.29,30.16,10,10,10,17,6,22,0.00,0,,168